sensor_id;sensor_type;location;lat;lon;timestamp;pressure;altitude;pressure_sealevel;temperature;humidity
69219;BME280;56232;53.384;-2.732;2023-04-10T00:02:04;100598.84;;;10.72;33.21
69219;BME280;56232;53.384;-2.732;2023-04-10T00:04:29;100589.28;;;10.46;33.56
69219;BME280;56232;53.384;-2.732;2023-04-10T00:06:55;100580.45;;;9.74;33.19
69219;BME280;56232;53.384;-2.732;2023-04-10T00:09:20;100577.76;;;10.24;33.42
69219;BME280;56232;53.384;-2.732;2023-04-10T00:11:45;100575.40;;;10.26;33.75
69219;BME280;56232;53.384;-2.732;2023-04-10T00:14:10;100565.70;;;10.28;33.27
69219;BME280;56232;53.384;-2.732;2023-04-10T00:16:40;100565.20;;;9.68;33.62
69219;BME280;56232;53.384;-2.732;2023-04-10T00:19:00;100563.94;;;10.29;34.05
69219;BME280;56232;53.384;-2.732;2023-04-10T00:21:26;100558.25;;;10.14;34.05
69219;BME280;56232;53.384;-2.732;2023-04-10T00:23:51;100554.44;;;10.36;33.38
69219;BME280;56232;53.384;-2.732;2023-04-10T00:26:16;100543.82;;;10.51;33.63
69219;BME280;56232;53.384;-2.732;2023-04-10T00:28:42;100531.24;;;9.97;33.84
69219;BME280;56232;53.384;-2.732;2023-04-10T00:31:07;100526.15;;;10.13;33.34
69219;BME280;56232;53.384;-2.732;2023-04-10T00:33:33;100524.90;;;10.88;32.92
69219;BME280;56232;53.384;-2.732;2023-04-10T00:35:58;100515.97;;;10.71;33.42
69219;BME280;56232;53.384;-2.732;2023-04-10T00:38:23;100514.89;;;10.06;32.98
69219;BME280;56232;53.384;-2.732;2023-04-10T00:40:49;100519.17;;;10.72;33.26
69219;BME280;56232;53.384;-2.732;2023-04-10T00:43:16;100519.42;;;9.90;33.42
69219;BME280;56232;53.384;-2.732;2023-04-10T00:45:40;100516.59;;;10.61;33.11
69219;BME280;56232;53.384;-2.732;2023-04-10T00:48:06;100512.93;;;10.05;34.08
69219;BME280;56232;53.384;-2.732;2023-04-10T00:50:31;100512.12;;;10.85;33.13
69219;BME280;56232;53.384;-2.732;2023-04-10T00:52:57;100511.80;;;10.85;33.10
69219;BME280;56232;53.384;-2.732;2023-04-10T00:55:22;100514.59;;;10.20;32.65
69219;BME280;56232;53.384;-2.732;2023-04-10T00:57:48;100509.19;;;10.71;33.30
69219;BME280;56232;53.384;-2.732;2023-04-10T01:00:14;100518.96;;;10.74;33.34
69219;BME280;56232;53.384;-2.732;2023-04-10T01:02:38;100516.33;;;10.76;33.34
69219;BME280;56232;53.384;-2.732;2023-04-10T01:05:03;100523.31;;;10.03;33.37
69219;BME280;56232;53.384;-2.732;2023-04-10T01:07:37;100512.19;;;9.84;33.65
69219;BME280;56232;53.384;-2.732;2023-04-10T01:09:59;100503.75;;;10.12;35.12
69219;BME280;56232;53.384;-2.732;2023-04-10T01:12:32;100500.70;;;9.46;36.07
69219;BME280;56232;53.384;-2.732;2023-04-10T01:14:51;100505.59;;;9.55;35.45
69219;BME280;56232;53.384;-2.732;2023-04-10T01:17:13;100500.49;;;9.07;36.61
69219;BME280;56232;53.384;-2.732;2023-04-10T01:19:52;100499.57;;;8.96;36.60
69219;BME280;56232;53.384;-2.732;2023-04-10T01:22:01;100499.60;;;9.61;36.31
69219;BME280;56232;53.384;-2.732;2023-04-10T01:24:41;100490.56;;;8.99;36.45
69219;BME280;56232;53.384;-2.732;2023-04-10T01:27:03;100497.81;;;9.65;37.39
69219;BME280;56232;53.384;-2.732;2023-04-10T01:29:19;100487.63;;;9.51;36.97
69219;BME280;56232;53.384;-2.732;2023-04-10T01:31:47;100489.97;;;9.68;36.14
69219;BME280;56232;53.384;-2.732;2023-04-10T01:34:14;100496.04;;;9.28;36.05
69219;BME280;56232;53.384;-2.732;2023-04-10T01:36:36;100496.80;;;9.89;36.31
69219;BME280;56232;53.384;-2.732;2023-04-10T01:39:00;100489.24;;;8.94;36.88
69219;BME280;56232;53.384;-2.732;2023-04-10T01:41:26;100498.04;;;10.21;37.09
69219;BME280;56232;53.384;-2.732;2023-04-10T01:43:51;100490.45;;;9.67;35.54
69219;BME280;56232;53.384;-2.732;2023-04-10T01:46:17;100490.57;;;9.44;36.41
69219;BME280;56232;53.384;-2.732;2023-04-10T01:48:41;100491.30;;;10.37;35.81
69219;BME280;56232;53.384;-2.732;2023-04-10T01:51:07;100489.01;;;9.23;35.77
69219;BME280;56232;53.384;-2.732;2023-04-10T01:53:32;100484.72;;;10.52;35.71
69219;BME280;56232;53.384;-2.732;2023-04-10T01:55:58;100476.62;;;11.05;35.21
69219;BME280;56232;53.384;-2.732;2023-04-10T01:58:23;100467.70;;;10.41;37.02
69219;BME280;56232;53.384;-2.732;2023-04-10T02:00:48;100463.16;;;8.98;36.50
69219;BME280;56232;53.384;-2.732;2023-04-10T02:03:14;100467.67;;;10.00;37.22
69219;BME280;56232;53.384;-2.732;2023-04-10T02:05:50;100460.27;;;9.71;36.56
69219;BME280;56232;53.384;-2.732;2023-04-10T02:08:11;100450.79;;;9.19;36.94
69219;BME280;56232;53.384;-2.732;2023-04-10T02:10:35;100455.18;;;9.74;37.14
69219;BME280;56232;53.384;-2.732;2023-04-10T02:13:00;100452.06;;;9.44;37.05
69219;BME280;56232;53.384;-2.732;2023-04-10T02:15:23;100456.76;;;9.88;36.39
69219;BME280;56232;53.384;-2.732;2023-04-10T02:17:47;100459.33;;;9.38;36.68
69219;BME280;56232;53.384;-2.732;2023-04-10T02:20:13;100452.13;;;9.26;36.44
69219;BME280;56232;53.384;-2.732;2023-04-10T02:22:39;100445.18;;;9.29;38.41
69219;BME280;56232;53.384;-2.732;2023-04-10T02:25:04;100444.72;;;8.75;38.26
69219;BME280;56232;53.384;-2.732;2023-04-10T02:27:29;100451.29;;;9.59;36.46
69219;BME280;56232;53.384;-2.732;2023-04-10T02:29:53;100445.58;;;9.73;36.66
69219;BME280;56232;53.384;-2.732;2023-04-10T02:32:19;100446.73;;;9.36;37.22
69219;BME280;56232;53.384;-2.732;2023-04-10T02:34:45;100451.46;;;9.54;36.79
69219;BME280;56232;53.384;-2.732;2023-04-10T02:37:11;100440.56;;;9.04;36.11
69219;BME280;56232;53.384;-2.732;2023-04-10T02:39:36;100445.89;;;9.10;35.84
69219;BME280;56232;53.384;-2.732;2023-04-10T02:42:02;100430.91;;;10.07;35.93
69219;BME280;56232;53.384;-2.732;2023-04-10T02:44:28;100431.12;;;9.84;36.19
69219;BME280;56232;53.384;-2.732;2023-04-10T02:46:53;100419.86;;;9.83;36.59
69219;BME280;56232;53.384;-2.732;2023-04-10T02:49:19;100418.20;;;10.04;36.48
69219;BME280;56232;53.384;-2.732;2023-04-10T02:51:45;100417.49;;;9.97;35.82
69219;BME280;56232;53.384;-2.732;2023-04-10T02:54:10;100411.04;;;9.78;35.52
69219;BME280;56232;53.384;-2.732;2023-04-10T02:56:35;100401.48;;;9.76;36.60
69219;BME280;56232;53.384;-2.732;2023-04-10T02:59:01;100393.91;;;9.13;36.64
69219;BME280;56232;53.384;-2.732;2023-04-10T03:01:26;100392.71;;;9.69;37.08
69219;BME280;56232;53.384;-2.732;2023-04-10T03:03:52;100380.33;;;9.53;36.64
69219;BME280;56232;53.384;-2.732;2023-04-10T03:06:18;100366.68;;;8.90;35.91
69219;BME280;56232;53.384;-2.732;2023-04-10T03:08:44;100373.82;;;9.49;36.63
69219;BME280;56232;53.384;-2.732;2023-04-10T03:11:09;100357.13;;;8.41;35.69
69219;BME280;56232;53.384;-2.732;2023-04-10T03:13:35;100356.72;;;9.52;35.38
69219;BME280;56232;53.384;-2.732;2023-04-10T03:16:01;100360.28;;;9.31;35.35
69219;BME280;56232;53.384;-2.732;2023-04-10T03:18:27;100351.28;;;9.63;36.08
69219;BME280;56232;53.384;-2.732;2023-04-10T03:20:52;100350.80;;;9.12;36.45
69219;BME280;56232;53.384;-2.732;2023-04-10T03:23:18;100342.30;;;9.16;36.36
69219;BME280;56232;53.384;-2.732;2023-04-10T03:25:44;100335.02;;;9.64;36.89
69219;BME280;56232;53.384;-2.732;2023-04-10T03:28:09;100324.48;;;9.20;36.95
69219;BME280;56232;53.384;-2.732;2023-04-10T03:30:35;100336.39;;;8.77;36.75
69219;BME280;56232;53.384;-2.732;2023-04-10T03:33:01;100346.42;;;9.45;35.79
69219;BME280;56232;53.384;-2.732;2023-04-10T03:35:27;100343.63;;;9.50;36.83
69219;BME280;56232;53.384;-2.732;2023-04-10T03:37:52;100333.89;;;8.43;36.71
69219;BME280;56232;53.384;-2.732;2023-04-10T03:40:18;100332.61;;;9.06;36.89
69219;BME280;56232;53.384;-2.732;2023-04-10T03:42:44;100323.69;;;9.78;36.56
69219;BME280;56232;53.384;-2.732;2023-04-10T03:45:10;100326.64;;;9.92;36.73
69219;BME280;56232;53.384;-2.732;2023-04-10T03:47:35;100333.42;;;10.14;36.23
69219;BME280;56232;53.384;-2.732;2023-04-10T03:50:01;100336.26;;;10.17;35.17
69219;BME280;56232;53.384;-2.732;2023-04-10T03:52:26;100331.44;;;8.93;35.57
69219;BME280;56232;53.384;-2.732;2023-04-10T03:54:52;100330.05;;;9.45;35.17
69219;BME280;56232;53.384;-2.732;2023-04-10T03:57:18;100330.24;;;8.88;35.44
69219;BME280;56232;53.384;-2.732;2023-04-10T03:59:43;100322.45;;;9.39;34.82
69219;BME280;56232;53.384;-2.732;2023-04-10T04:02:09;100319.98;;;9.17;34.67
69219;BME280;56232;53.384;-2.732;2023-04-10T04:04:35;100318.43;;;9.74;35.88
69219;BME280;56232;53.384;-2.732;2023-04-10T04:07:01;100321.29;;;9.54;35.23
69219;BME280;56232;53.384;-2.732;2023-04-10T04:09:26;100313.71;;;9.49;35.58
69219;BME280;56232;53.384;-2.732;2023-04-10T04:11:52;100301.50;;;9.41;36.31
69219;BME280;56232;53.384;-2.732;2023-04-10T04:14:18;100292.82;;;9.44;35.22
69219;BME280;56232;53.384;-2.732;2023-04-10T04:16:43;100293.25;;;9.53;36.42
69219;BME280;56232;53.384;-2.732;2023-04-10T04:19:09;100294.42;;;9.65;36.78
69219;BME280;56232;53.384;-2.732;2023-04-10T04:21:35;100282.80;;;9.82;36.18
69219;BME280;56232;53.384;-2.732;2023-04-10T04:24:00;100277.16;;;9.76;36.32
69219;BME280;56232;53.384;-2.732;2023-04-10T04:26:26;100284.93;;;8.72;36.96
69219;BME280;56232;53.384;-2.732;2023-04-10T04:28:52;100290.86;;;9.43;36.76
69219;BME280;56232;53.384;-2.732;2023-04-10T04:31:18;100291.21;;;10.12;36.59
69219;BME280;56232;53.384;-2.732;2023-04-10T04:33:43;100302.69;;;10.07;35.70
69219;BME280;56232;53.384;-2.732;2023-04-10T04:36:09;100299.81;;;10.15;35.42
69219;BME280;56232;53.384;-2.732;2023-04-10T04:38:35;100297.23;;;10.28;35.75
69219;BME280;56232;53.384;-2.732;2023-04-10T04:41:00;100298.19;;;9.81;34.87
69219;BME280;56232;53.384;-2.732;2023-04-10T04:43:26;100299.06;;;10.40;35.41
69219;BME280;56232;53.384;-2.732;2023-04-10T04:45:52;100287.04;;;10.31;35.00
69219;BME280;56232;53.384;-2.732;2023-04-10T04:48:17;100285.85;;;10.22;36.36
69219;BME280;56232;53.384;-2.732;2023-04-10T04:50:43;100279.20;;;9.77;35.95
69219;BME280;56232;53.384;-2.732;2023-04-10T04:53:09;100272.34;;;9.93;34.29
69219;BME280;56232;53.384;-2.732;2023-04-10T04:55:40;100268.46;;;9.27;35.25
69219;BME280;56232;53.384;-2.732;2023-04-10T04:58:00;100271.03;;;9.17;36.65
69219;BME280;56232;53.384;-2.732;2023-04-10T05:00:26;100264.89;;;9.25;36.24
69219;BME280;56232;53.384;-2.732;2023-04-10T05:02:52;100265.30;;;9.35;36.13
69219;BME280;56232;53.384;-2.732;2023-04-10T05:05:18;100260.95;;;9.92;36.53
69219;BME280;56232;53.384;-2.732;2023-04-10T05:07:43;100264.82;;;10.83;35.91
69219;BME280;56232;53.384;-2.732;2023-04-10T05:10:09;100269.71;;;9.78;36.36
69219;BME280;56232;53.384;-2.732;2023-04-10T05:12:34;100274.89;;;10.30;35.74
69219;BME280;56232;53.384;-2.732;2023-04-10T05:15:00;100270.69;;;9.70;36.20
69219;BME280;56232;53.384;-2.732;2023-04-10T05:17:26;100268.01;;;9.73;35.16
69219;BME280;56232;53.384;-2.732;2023-04-10T05:19:52;100265.78;;;9.81;35.55
69219;BME280;56232;53.384;-2.732;2023-04-10T05:22:17;100258.59;;;9.85;34.92
69219;BME280;56232;53.384;-2.732;2023-04-10T05:24:43;100264.11;;;9.86;35.07
69219;BME280;56232;53.384;-2.732;2023-04-10T05:27:09;100266.77;;;8.78;33.78
69219;BME280;56232;53.384;-2.732;2023-04-10T05:29:34;100266.01;;;9.75;34.77
69219;BME280;56232;53.384;-2.732;2023-04-10T05:32:00;100261.09;;;9.77;35.76
69219;BME280;56232;53.384;-2.732;2023-04-10T05:34:25;100253.85;;;10.16;34.49
69219;BME280;56232;53.384;-2.732;2023-04-10T05:36:50;100255.90;;;9.66;35.55
69219;BME280;56232;53.384;-2.732;2023-04-10T05:39:16;100248.90;;;9.65;36.17
69219;BME280;56232;53.384;-2.732;2023-04-10T05:41:41;100241.15;;;10.85;36.20
69219;BME280;56232;53.384;-2.732;2023-04-10T05:44:07;100242.75;;;10.36;35.86
69219;BME280;56232;53.384;-2.732;2023-04-10T05:46:33;100244.75;;;9.93;34.62
69219;BME280;56232;53.384;-2.732;2023-04-10T05:48:59;100242.21;;;9.92;35.56
69219;BME280;56232;53.384;-2.732;2023-04-10T05:51:24;100237.81;;;9.96;34.97
69219;BME280;56232;53.384;-2.732;2023-04-10T05:53:50;100231.95;;;10.51;33.95
69219;BME280;56232;53.384;-2.732;2023-04-10T05:56:16;100233.86;;;9.90;35.04
69219;BME280;56232;53.384;-2.732;2023-04-10T05:58:41;100236.28;;;11.07;34.56
69219;BME280;56232;53.384;-2.732;2023-04-10T06:01:07;100230.78;;;9.89;35.18
69219;BME280;56232;53.384;-2.732;2023-04-10T06:03:33;100231.58;;;9.82;36.87
69219;BME280;56232;53.384;-2.732;2023-04-10T06:05:59;100227.43;;;9.99;35.88
69219;BME280;56232;53.384;-2.732;2023-04-10T06:08:24;100222.07;;;10.66;34.45
69219;BME280;56232;53.384;-2.732;2023-04-10T06:10:50;100224.97;;;11.35;36.17
69219;BME280;56232;53.384;-2.732;2023-04-10T06:13:16;100220.23;;;10.38;36.49
69219;BME280;56232;53.384;-2.732;2023-04-10T06:15:42;100218.04;;;10.54;35.16
69219;BME280;56232;53.384;-2.732;2023-04-10T06:18:07;100202.91;;;10.01;34.87
69219;BME280;56232;53.384;-2.732;2023-04-10T06:20:33;100198.83;;;11.18;35.50
69219;BME280;56232;53.384;-2.732;2023-04-10T06:22:59;100201.52;;;10.74;34.64
69219;BME280;56232;53.384;-2.732;2023-04-10T06:25:24;100203.29;;;10.84;34.48
69219;BME280;56232;53.384;-2.732;2023-04-10T06:27:50;100207.65;;;10.93;34.84
69219;BME280;56232;53.384;-2.732;2023-04-10T06:30:16;100202.79;;;10.85;34.15
69219;BME280;56232;53.384;-2.732;2023-04-10T06:32:42;100196.76;;;10.64;34.87
69219;BME280;56232;53.384;-2.732;2023-04-10T06:35:08;100193.65;;;10.50;34.42
69219;BME280;56232;53.384;-2.732;2023-04-10T06:37:33;100190.56;;;10.04;34.95
69219;BME280;56232;53.384;-2.732;2023-04-10T06:40:02;100187.74;;;10.79;34.81
69219;BME280;56232;53.384;-2.732;2023-04-10T06:42:24;100180.59;;;10.95;34.80
69219;BME280;56232;53.384;-2.732;2023-04-10T06:44:50;100182.31;;;10.96;35.68
69219;BME280;56232;53.384;-2.732;2023-04-10T06:47:15;100171.93;;;10.51;34.42
69219;BME280;56232;53.384;-2.732;2023-04-10T06:49:41;100157.35;;;10.76;35.10
69219;BME280;56232;53.384;-2.732;2023-04-10T06:52:06;100159.13;;;11.00;34.07
69219;BME280;56232;53.384;-2.732;2023-04-10T06:54:32;100154.31;;;12.09;34.41
69219;BME280;56232;53.384;-2.732;2023-04-10T06:56:58;100152.71;;;12.06;34.13
69219;BME280;56232;53.384;-2.732;2023-04-10T06:59:23;100156.26;;;12.81;33.66
69219;BME280;56232;53.384;-2.732;2023-04-10T07:01:49;100151.59;;;13.12;32.75
69219;BME280;56232;53.384;-2.732;2023-04-10T07:04:14;100156.35;;;13.87;31.51
69219;BME280;56232;53.384;-2.732;2023-04-10T07:06:40;100162.85;;;14.47;30.80
69219;BME280;56232;53.384;-2.732;2023-04-10T07:09:06;100158.25;;;15.54;30.50
69219;BME280;56232;53.384;-2.732;2023-04-10T07:11:31;100155.55;;;16.06;29.03
69219;BME280;56232;53.384;-2.732;2023-04-10T07:14:02;100151.80;;;16.34;29.54
69219;BME280;56232;53.384;-2.732;2023-04-10T07:16:23;100139.52;;;16.52;29.91
69219;BME280;56232;53.384;-2.732;2023-04-10T07:18:48;100139.83;;;16.64;29.39
69219;BME280;56232;53.384;-2.732;2023-04-10T07:21:14;100136.53;;;15.96;30.66
69219;BME280;56232;53.384;-2.732;2023-04-10T07:23:40;100130.96;;;16.11;30.60
69219;BME280;56232;53.384;-2.732;2023-04-10T07:26:06;100122.49;;;15.65;30.93
69219;BME280;56232;53.384;-2.732;2023-04-10T07:28:31;100122.78;;;15.19;30.50
69219;BME280;56232;53.384;-2.732;2023-04-10T07:31:11;100121.46;;;15.34;31.26
69219;BME280;56232;53.384;-2.732;2023-04-10T07:33:22;100118.91;;;15.59;29.83
69219;BME280;56232;53.384;-2.732;2023-04-10T07:35:48;100126.72;;;15.76;30.01
69219;BME280;56232;53.384;-2.732;2023-04-10T07:38:13;100127.73;;;15.53;30.32
69219;BME280;56232;53.384;-2.732;2023-04-10T07:40:39;100127.75;;;15.23;30.39
69219;BME280;56232;53.384;-2.732;2023-04-10T07:43:05;100116.78;;;15.52;30.71
69219;BME280;56232;53.384;-2.732;2023-04-10T07:45:31;100108.29;;;16.39;29.66
69219;BME280;56232;53.384;-2.732;2023-04-10T07:47:57;100101.51;;;14.92;29.98
69219;BME280;56232;53.384;-2.732;2023-04-10T07:50:22;100104.84;;;14.72;31.10
69219;BME280;56232;53.384;-2.732;2023-04-10T07:52:52;100106.72;;;14.49;31.06
69219;BME280;56232;53.384;-2.732;2023-04-10T07:55:13;100102.09;;;14.59;30.71
69219;BME280;56232;53.384;-2.732;2023-04-10T07:57:39;100093.75;;;15.44;31.53
69219;BME280;56232;53.384;-2.732;2023-04-10T08:00:06;100082.55;;;15.18;30.26
69219;BME280;56232;53.384;-2.732;2023-04-10T08:02:30;100079.13;;;16.70;29.26
69219;BME280;56232;53.384;-2.732;2023-04-10T08:04:57;100071.12;;;17.98;27.53
69219;BME280;56232;53.384;-2.732;2023-04-10T08:07:21;100065.25;;;19.93;26.25
69219;BME280;56232;53.384;-2.732;2023-04-10T08:09:48;100068.25;;;20.14;26.26
69219;BME280;56232;53.384;-2.732;2023-04-10T08:12:13;100066.46;;;19.00;26.05
69219;BME280;56232;53.384;-2.732;2023-04-10T08:14:39;100056.51;;;18.09;26.72
69219;BME280;56232;53.384;-2.732;2023-04-10T08:17:04;100052.71;;;17.48;27.52
69219;BME280;56232;53.384;-2.732;2023-04-10T08:19:29;100058.72;;;18.77;26.72
69219;BME280;56232;53.384;-2.732;2023-04-10T08:21:56;100049.84;;;21.16;24.94
69219;BME280;56232;53.384;-2.732;2023-04-10T08:24:21;100049.35;;;21.79;24.13
69219;BME280;56232;53.384;-2.732;2023-04-10T08:26:46;100043.06;;;23.93;22.28
69219;BME280;56232;53.384;-2.732;2023-04-10T08:29:12;100042.22;;;24.46;21.75
69219;BME280;56232;53.384;-2.732;2023-04-10T08:31:37;100033.05;;;25.56;20.74
69219;BME280;56232;53.384;-2.732;2023-04-10T08:34:03;100028.66;;;26.87;19.78
69219;BME280;56232;53.384;-2.732;2023-04-10T08:36:28;100019.58;;;27.61;19.76
69219;BME280;56232;53.384;-2.732;2023-04-10T08:38:54;100017.97;;;25.86;19.81
69219;BME280;56232;53.384;-2.732;2023-04-10T08:41:20;100013.50;;;24.62;20.24
69219;BME280;56232;53.384;-2.732;2023-04-10T08:43:45;100013.79;;;24.30;20.65
69219;BME280;56232;53.384;-2.732;2023-04-10T08:46:11;100005.71;;;25.08;20.14
69219;BME280;56232;53.384;-2.732;2023-04-10T08:48:38;100004.99;;;26.34;19.70
69219;BME280;56232;53.384;-2.732;2023-04-10T08:51:04;99999.10;;;27.55;19.25
69219;BME280;56232;53.384;-2.732;2023-04-10T08:53:30;99996.84;;;26.86;19.42
69219;BME280;56232;53.384;-2.732;2023-04-10T08:55:53;99983.61;;;26.91;18.77
69219;BME280;56232;53.384;-2.732;2023-04-10T08:58:19;99980.83;;;27.23;18.20
69219;BME280;56232;53.384;-2.732;2023-04-10T09:00:44;99977.58;;;26.45;19.43
69219;BME280;56232;53.384;-2.732;2023-04-10T09:03:10;99969.90;;;26.71;19.42
69219;BME280;56232;53.384;-2.732;2023-04-10T09:05:35;99966.51;;;26.02;19.85
69219;BME280;56232;53.384;-2.732;2023-04-10T09:08:01;99964.69;;;27.11;19.19
69219;BME280;56232;53.384;-2.732;2023-04-10T09:10:26;99967.81;;;26.18;19.53
69219;BME280;56232;53.384;-2.732;2023-04-10T09:12:52;99991.89;;;24.54;21.25
69219;BME280;56232;53.384;-2.732;2023-04-10T09:15:17;100008.29;;;21.83;22.68
69219;BME280;56232;53.384;-2.732;2023-04-10T09:20:19;100007.78;;;17.11;28.00
69219;BME280;56232;53.384;-2.732;2023-04-10T09:22:34;100001.86;;;15.62;35.72
69219;BME280;56232;53.384;-2.732;2023-04-10T09:25:01;99987.91;;;14.70;38.93
69219;BME280;56232;53.384;-2.732;2023-04-10T09:27:27;99994.93;;;14.07;40.58
69219;BME280;56232;53.384;-2.732;2023-04-10T09:29:51;99994.48;;;12.85;40.82
69219;BME280;56232;53.384;-2.732;2023-04-10T09:34:50;99991.77;;;12.53;44.29
69219;BME280;56232;53.384;-2.732;2023-04-10T09:37:08;99981.35;;;13.06;44.93
69219;BME280;56232;53.384;-2.732;2023-04-10T09:39:34;99968.04;;;11.56;45.75
69219;BME280;56232;53.384;-2.732;2023-04-10T09:41:59;99956.26;;;12.01;45.89
69219;BME280;56232;53.384;-2.732;2023-04-10T09:44:29;99946.98;;;12.55;46.88
69219;BME280;56232;53.384;-2.732;2023-04-10T09:46:50;99948.32;;;13.10;46.71
69219;BME280;56232;53.384;-2.732;2023-04-10T09:49:16;99945.14;;;12.77;46.65
69219;BME280;56232;53.384;-2.732;2023-04-10T09:51:42;99933.98;;;13.54;46.01
69219;BME280;56232;53.384;-2.732;2023-04-10T09:54:07;99928.27;;;14.80;44.40
69219;BME280;56232;53.384;-2.732;2023-04-10T09:56:37;99916.98;;;14.51;43.90
69219;BME280;56232;53.384;-2.732;2023-04-10T09:58:59;99913.36;;;16.81;41.38
69219;BME280;56232;53.384;-2.732;2023-04-10T10:01:25;99911.82;;;18.19;39.45
69219;BME280;56232;53.384;-2.732;2023-04-10T10:03:50;99898.03;;;19.12;37.27
69219;BME280;56232;53.384;-2.732;2023-04-10T10:06:16;99879.22;;;19.07;36.52
69219;BME280;56232;53.384;-2.732;2023-04-10T10:08:41;99882.84;;;19.09;35.64
69219;BME280;56232;53.384;-2.732;2023-04-10T10:11:07;99885.02;;;18.30;36.10
69219;BME280;56232;53.384;-2.732;2023-04-10T10:13:36;99885.95;;;17.64;36.55
69219;BME280;56232;53.384;-2.732;2023-04-10T10:16:06;99876.39;;;17.10;37.23
69219;BME280;56232;53.384;-2.732;2023-04-10T10:18:29;99874.62;;;16.75;39.14
69219;BME280;56232;53.384;-2.732;2023-04-10T10:20:50;99874.41;;;16.49;39.91
69219;BME280;56232;53.384;-2.732;2023-04-10T10:23:15;99871.82;;;15.71;40.29
69219;BME280;56232;53.384;-2.732;2023-04-10T10:25:40;99856.83;;;15.44;40.96
69219;BME280;56232;53.384;-2.732;2023-04-10T10:28:06;99851.59;;;16.69;41.23
69219;BME280;56232;53.384;-2.732;2023-04-10T10:30:32;99848.48;;;15.64;41.73
69219;BME280;56232;53.384;-2.732;2023-04-10T10:32:59;99846.68;;;15.98;41.82
69219;BME280;56232;53.384;-2.732;2023-04-10T10:35:24;99843.23;;;15.73;41.86
69219;BME280;56232;53.384;-2.732;2023-04-10T10:37:48;99836.11;;;16.13;41.27
69219;BME280;56232;53.384;-2.732;2023-04-10T10:40:18;99832.25;;;16.23;41.20
69219;BME280;56232;53.384;-2.732;2023-04-10T10:42:44;99832.23;;;16.09;41.35
69219;BME280;56232;53.384;-2.732;2023-04-10T10:45:10;99833.36;;;15.11;40.39
69219;BME280;56232;53.384;-2.732;2023-04-10T10:47:33;99829.78;;;15.66;41.32
69219;BME280;56232;53.384;-2.732;2023-04-10T10:49:59;99827.96;;;15.73;41.67
69219;BME280;56232;53.384;-2.732;2023-04-10T10:54:48;99819.78;;;15.03;42.92
69219;BME280;56232;53.384;-2.732;2023-04-10T11:02:11;99795.17;;;14.81;42.05
69219;BME280;56232;53.384;-2.732;2023-04-10T11:06:57;99795.15;;;14.82;43.90
69219;BME280;56232;53.384;-2.732;2023-04-10T11:11:57;99795.22;;;14.64;42.30
69219;BME280;56232;53.384;-2.732;2023-04-10T11:14:13;99807.60;;;13.70;42.81
69219;BME280;56232;53.384;-2.732;2023-04-10T11:16:43;99813.53;;;14.42;43.44
69219;BME280;56232;53.384;-2.732;2023-04-10T11:19:05;99816.86;;;14.31;43.49
69219;BME280;56232;53.384;-2.732;2023-04-10T11:21:30;99833.25;;;13.46;42.17
69219;BME280;56232;53.384;-2.732;2023-04-10T11:24:02;99837.95;;;13.10;42.54
69219;BME280;56232;53.384;-2.732;2023-04-10T11:28:46;99843.66;;;11.47;42.25
69219;BME280;56232;53.384;-2.732;2023-04-10T11:31:16;99850.43;;;11.00;42.79
69219;BME280;56232;53.384;-2.732;2023-04-10T11:33:38;99852.31;;;10.50;44.85
69219;BME280;56232;53.384;-2.732;2023-04-10T11:36:05;99856.50;;;9.86;45.08
69219;BME280;56232;53.384;-2.732;2023-04-10T11:38:29;99857.36;;;9.40;45.80
69219;BME280;56232;53.384;-2.732;2023-04-10T11:40:59;99851.28;;;10.05;45.52
69219;BME280;56232;53.384;-2.732;2023-04-10T11:43:21;99847.48;;;9.37;46.53
69219;BME280;56232;53.384;-2.732;2023-04-10T11:45:46;99843.35;;;10.10;46.99
69219;BME280;56232;53.384;-2.732;2023-04-10T11:48:13;99838.93;;;9.78;46.72
69219;BME280;56232;53.384;-2.732;2023-04-10T11:50:37;99838.97;;;10.24;46.37
69219;BME280;56232;53.384;-2.732;2023-04-10T11:55:35;99842.89;;;10.10;45.93
69219;BME280;56232;53.384;-2.732;2023-04-10T11:57:55;99852.00;;;10.94;45.80
69219;BME280;56232;53.384;-2.732;2023-04-10T12:00:22;99857.73;;;11.03;45.58
69219;BME280;56232;53.384;-2.732;2023-04-10T12:02:50;99861.37;;;10.26;44.78
69219;BME280;56232;53.384;-2.732;2023-04-10T12:05:12;99859.39;;;11.37;44.58
69219;BME280;56232;53.384;-2.732;2023-04-10T12:07:37;99862.50;;;10.80;43.84
69219;BME280;56232;53.384;-2.732;2023-04-10T12:10:04;99864.71;;;11.19;43.24
69219;BME280;56232;53.384;-2.732;2023-04-10T12:12:34;99865.57;;;11.54;42.76
69219;BME280;56232;53.384;-2.732;2023-04-10T12:14:54;99877.97;;;12.00;42.55
69219;BME280;56232;53.384;-2.732;2023-04-10T12:17:20;99877.08;;;12.26;40.85
69219;BME280;56232;53.384;-2.732;2023-04-10T12:19:46;99887.88;;;11.76;40.66
69219;BME280;56232;53.384;-2.732;2023-04-10T12:22:11;99896.84;;;11.79;40.12
69219;BME280;56232;53.384;-2.732;2023-04-10T12:24:41;99902.45;;;10.93;40.57
69219;BME280;56232;53.384;-2.732;2023-04-10T12:27:03;99904.12;;;10.16;41.62
69219;BME280;56232;53.384;-2.732;2023-04-10T12:29:29;99904.41;;;10.77;42.22
69219;BME280;56232;53.384;-2.732;2023-04-10T12:31:55;99906.03;;;10.64;41.88
69219;BME280;56232;53.384;-2.732;2023-04-10T12:34:20;99908.97;;;10.22;42.49
69219;BME280;56232;53.384;-2.732;2023-04-10T12:36:51;99898.83;;;11.27;41.82
69219;BME280;56232;53.384;-2.732;2023-04-10T12:39:21;99897.19;;;11.60;40.73
69219;BME280;56232;53.384;-2.732;2023-04-10T12:41:37;99895.33;;;12.05;39.58
69219;BME280;56232;53.384;-2.732;2023-04-10T12:44:07;99899.53;;;12.75;39.74
69219;BME280;56232;53.384;-2.732;2023-04-10T12:46:28;99900.63;;;13.33;40.07
69219;BME280;56232;53.384;-2.732;2023-04-10T12:48:54;99905.07;;;13.16;38.51
69219;BME280;56232;53.384;-2.732;2023-04-10T12:53:45;99908.67;;;12.37;39.11
69219;BME280;56232;53.384;-2.732;2023-04-10T12:56:12;99909.65;;;12.46;39.22
69219;BME280;56232;53.384;-2.732;2023-04-10T12:58:37;99910.73;;;13.20;37.98
69219;BME280;56232;53.384;-2.732;2023-04-10T13:01:04;99910.76;;;12.87;38.69